Time;durP1;ratioP1;P1;durP2;ratioP2;P2;SDS_P1;SDS_P2;PMS_P1;PMS_P2;Temp;Humidity;BMP_temperature;BMP_pressure;BME280_temperature;BME280_humidity;BME280_pressure;Samples;Min_cycle;Max_cycle;Signal;HPM_P1;HPM_P2
2023/07/22 00:01:57;;;;;;;9.80;3.47;;;;;;;-144.48;100.00;62369.91;5009354;28;20095;-66
2023/07/22 00:04:23;;;;;;;7.63;3.80;;;;;;;-144.48;100.00;62369.91;5008480;28;20022;-67
2023/07/22 00:06:48;;;;;;;6.20;3.33;;;;;;;-144.48;100.00;62369.91;5007373;28;20080;-67
2023/07/22 00:09:13;;;;;;;7.90;3.67;;;;;;;-144.48;100.00;62369.91;5009271;28;20026;-66
2023/07/22 00:11:39;;;;;;;8.30;4.03;;;;;;;-144.48;100.00;62369.91;5009613;28;20026;-67
2023/07/22 00:14:06;;;;;;;9.80;3.53;;;;;;;-144.48;100.00;62369.91;5008553;28;20026;-64
2023/07/22 00:16:31;;;;;;;9.20;4.40;;;;;;;-144.48;100.00;62369.91;5009622;28;20109;-67
2023/07/22 00:18:57;;;;;;;9.80;4.03;;;;;;;-144.48;100.00;62369.91;5009099;28;20104;-66
2023/07/22 00:21:22;;;;;;;10.43;4.25;;;;;;;-144.48;100.00;62369.91;5009290;28;20403;-66
2023/07/22 00:23:48;;;;;;;8.57;4.32;;;;;;;-144.48;100.00;62369.91;5008619;28;20026;-66
2023/07/22 00:26:13;;;;;;;6.32;4.40;;;;;;;-144.48;100.00;62369.91;5009497;28;20034;-65
2023/07/22 00:28:39;;;;;;;7.18;4.53;;;;;;;-144.48;100.00;62369.91;5009347;28;20032;-68
2023/07/22 00:31:04;;;;;;;12.32;4.95;;;;;;;-144.48;100.00;62369.91;5009250;28;20484;-65
2023/07/22 00:33:29;;;;;;;8.35;4.93;;;;;;;-144.48;100.00;62369.91;5007829;28;20670;-65
2023/07/22 00:35:55;;;;;;;10.38;5.07;;;;;;;-144.48;100.00;62369.91;5009066;28;20034;-66
2023/07/22 00:38:21;;;;;;;10.30;5.03;;;;;;;-144.48;100.00;62369.91;5009460;28;20121;-67
2023/07/22 00:40:46;;;;;;;9.02;4.88;;;;;;;-144.48;100.00;62369.91;5009746;28;20018;-66
2023/07/22 00:43:12;;;;;;;11.10;5.30;;;;;;;-144.48;100.00;62369.91;5008917;28;20030;-67
2023/07/22 00:45:37;;;;;;;11.45;5.30;;;;;;;-144.48;100.00;62369.91;5008975;28;20022;-66
2023/07/22 00:48:05;;;;;;;12.88;5.53;;;;;;;-144.48;100.00;62369.91;5009356;28;20545;-67
2023/07/22 00:50:31;;;;;;;10.30;5.20;;;;;;;-144.48;100.00;62369.91;5008394;28;20022;-66
2023/07/22 00:52:57;;;;;;;7.95;5.78;;;;;;;-144.48;100.00;62369.91;5008861;28;20061;-68
2023/07/22 00:55:23;;;;;;;8.93;5.43;;;;;;;-144.48;100.00;62369.91;5008503;28;20054;-68
2023/07/22 00:57:48;;;;;;;12.48;5.88;;;;;;;-144.48;100.00;62369.91;5009552;28;20075;-67
2023/07/22 01:00:15;;;;;;;10.68;5.28;;;;;;;-144.48;100.00;62369.91;5008813;28;20034;-65
2023/07/22 01:02:41;;;;;;;9.57;5.82;;;;;;;-144.48;100.00;62369.91;5009200;28;20104;-67
2023/07/22 01:05:08;;;;;;;9.40;6.20;;;;;;;-144.48;100.00;62369.91;5007570;28;20109;-68
2023/07/22 01:07:34;;;;;;;9.80;5.27;;;;;;;-144.48;100.00;62369.91;4998694;28;20056;-67
2023/07/22 01:10:00;;;;;;;8.50;5.72;;;;;;;-144.48;100.00;62369.91;5007655;28;20625;-66
2023/07/22 01:12:25;;;;;;;9.35;6.05;;;;;;;-144.48;100.00;62369.91;5009113;28;20109;-67
2023/07/22 01:14:51;;;;;;;13.15;5.80;;;;;;;-144.48;100.00;62369.91;5010999;28;20113;-67
2023/07/22 01:17:16;;;;;;;8.95;5.63;;;;;;;-144.48;100.00;62369.91;5012559;28;20387;-67
2023/07/22 01:19:43;;;;;;;11.32;6.07;;;;;;;-144.48;100.00;62369.91;5012201;28;20026;-67
2023/07/22 01:22:09;;;;;;;12.10;5.80;;;;;;;-144.48;100.00;62369.91;5012334;28;20034;-67
2023/07/22 01:24:35;;;;;;;8.02;5.68;;;;;;;-144.48;100.00;62369.91;5011810;28;20118;-66
2023/07/22 01:27:03;;;;;;;8.25;5.45;;;;;;;-144.48;100.00;62369.91;5012605;28;20391;-68
2023/07/22 01:29:28;;;;;;;7.75;5.40;;;;;;;-144.48;100.00;62369.91;4997651;28;20032;-67
2023/07/22 01:31:54;;;;;;;10.60;5.60;;;;;;;-144.48;100.00;62369.91;5012065;28;20030;-64
2023/07/22 01:34:21;;;;;;;12.63;6.10;;;;;;;-144.48;100.00;62369.91;5009946;28;20026;-65
2023/07/22 01:36:47;;;;;;;8.52;5.40;;;;;;;-144.48;100.00;62369.91;5011584;28;20160;-67
2023/07/22 01:39:14;;;;;;;9.63;5.88;;;;;;;-144.48;100.00;62369.91;5012435;28;20434;-63
2023/07/22 01:41:39;;;;;;;11.65;5.43;;;;;;;-144.48;100.00;62369.91;5012296;28;20515;-63
2023/07/22 01:44:05;;;;;;;8.52;5.72;;;;;;;-144.48;100.00;62369.91;5011301;28;20254;-67
2023/07/22 01:46:30;;;;;;;10.02;6.18;;;;;;;-144.48;100.00;62369.91;5012415;28;20052;-64
2023/07/22 01:48:56;;;;;;;8.75;5.85;;;;;;;-144.48;100.00;62369.91;5012055;28;20110;-67
2023/07/22 01:51:21;;;;;;;12.23;6.03;;;;;;;-144.48;100.00;62369.91;5012027;28;20132;-67
2023/07/22 01:53:47;;;;;;;9.95;5.88;;;;;;;-144.48;100.00;62369.91;5010571;28;20490;-66
2023/07/22 01:56:13;;;;;;;9.50;5.85;;;;;;;-144.48;100.00;62369.91;5011900;28;20026;-65
2023/07/22 01:58:38;;;;;;;9.55;6.10;;;;;;;-144.48;100.00;62369.91;5011596;28;20212;-67
2023/07/22 02:01:04;;;;;;;13.77;6.43;;;;;;;-144.48;100.00;62369.91;5011900;28;20495;-66
2023/07/22 02:03:29;;;;;;;13.05;6.13;;;;;;;-144.48;100.00;62369.91;5011319;28;20073;-65
2023/07/22 02:06:02;;;;;;;9.77;5.80;;;;;;;-144.48;100.00;62369.91;5011363;28;20053;-67
2023/07/22 02:08:28;;;;;;;8.82;5.20;;;;;;;-144.48;100.00;62369.91;5009131;28;20098;-67
2023/07/22 02:10:53;;;;;;;14.75;6.20;;;;;;;-144.48;100.00;62369.91;5011424;28;20104;-65
2023/07/22 02:13:18;;;;;;;10.85;5.53;;;;;;;-144.48;100.00;62369.91;5010933;28;20030;-68
2023/07/22 02:15:44;;;;;;;12.88;5.82;;;;;;;-144.48;100.00;62369.91;5009886;28;20053;-65
2023/07/22 02:18:09;;;;;;;13.80;5.65;;;;;;;-144.48;100.00;62369.91;5011321;28;20030;-66
2023/07/22 02:20:35;;;;;;;12.32;5.28;;;;;;;-144.48;100.00;62369.91;5010933;28;20083;-67
2023/07/22 02:23:00;;;;;;;10.95;4.90;;;;;;;-144.48;100.00;62369.91;5010879;28;20055;-68
2023/07/22 02:25:25;;;;;;;10.38;5.47;;;;;;;-144.48;100.00;62369.91;5010493;28;20309;-68
2023/07/22 02:27:51;;;;;;;11.43;5.40;;;;;;;-144.48;100.00;62369.91;5011687;28;20052;-67
2023/07/22 02:30:17;;;;;;;11.60;5.47;;;;;;;-144.48;100.00;62369.91;5010688;28;20065;-66
2023/07/22 02:32:43;;;;;;;13.60;5.50;;;;;;;-144.48;100.00;62369.91;4997748;28;20022;-63
2023/07/22 02:35:09;;;;;;;7.95;5.10;;;;;;;-144.48;100.00;62369.91;5009984;28;20068;-66
2023/07/22 02:37:37;;;;;;;8.70;5.40;;;;;;;-144.48;100.00;62369.91;5010418;28;20407;-67
2023/07/22 02:40:07;;;;;;;9.70;5.72;;;;;;;-144.48;100.00;62369.91;5011140;28;20032;-64
2023/07/22 02:42:34;;;;;;;10.13;5.60;;;;;;;-144.48;100.00;62369.91;5011163;28;20408;-67
2023/07/22 02:45:00;;;;;;;11.75;6.28;;;;;;;-144.48;100.00;62369.91;5010063;28;20452;-65
2023/07/22 02:47:25;;;;;;;9.18;5.45;;;;;;;-144.48;100.00;62369.91;5010809;28;20102;-67
2023/07/22 02:49:50;;;;;;;8.98;5.43;;;;;;;-144.48;100.00;62369.91;5010970;28;20212;-69
2023/07/22 02:52:16;;;;;;;8.23;5.43;;;;;;;-144.48;100.00;62369.91;5010117;28;20033;-68
2023/07/22 02:54:41;;;;;;;12.80;5.47;;;;;;;-144.48;100.00;62369.91;5001494;28;20532;-68
2023/07/22 02:57:07;;;;;;;10.75;5.95;;;;;;;-144.48;100.00;62369.91;5010590;28;20380;-67
2023/07/22 02:59:33;;;;;;;14.48;5.60;;;;;;;-144.48;100.00;62369.91;4999382;28;20026;-67
2023/07/22 03:01:58;;;;;;;10.07;5.38;;;;;;;-144.48;100.00;62369.91;5010427;28;20479;-67
2023/07/22 03:04:24;;;;;;;13.88;5.60;;;;;;;-144.48;100.00;62369.91;5009611;28;20041;-65
2023/07/22 03:06:49;;;;;;;11.13;5.05;;;;;;;-144.48;100.00;62369.91;5009375;28;20041;-65
2023/07/22 03:09:14;;;;;;;9.65;5.28;;;;;;;-144.48;100.00;62369.91;5008862;28;20026;-67
2023/07/22 03:11:40;;;;;;;9.35;4.78;;;;;;;-144.48;100.00;62369.91;5010357;28;20018;-65
2023/07/22 03:14:05;;;;;;;9.18;5.57;;;;;;;-144.48;100.00;62369.91;5009502;28;20025;-68
2023/07/22 03:16:31;;;;;;;11.25;5.50;;;;;;;-144.48;100.00;62369.91;5010358;28;20044;-67
2023/07/22 03:18:57;;;;;;;10.40;5.60;;;;;;;-144.48;100.00;62369.91;5003682;28;20026;-67
2023/07/22 03:21:23;;;;;;;9.88;5.80;;;;;;;-144.48;100.00;62369.91;5010101;28;20028;-63
2023/07/22 03:23:48;;;;;;;13.75;5.22;;;;;;;-144.48;100.00;62369.91;5008918;28;20030;-64
2023/07/22 03:26:14;;;;;;;10.57;5.90;;;;;;;-144.48;100.00;62369.91;5009990;28;20101;-68
2023/07/22 03:28:41;;;;;;;11.77;5.53;;;;;;;-144.48;100.00;62369.91;5009803;28;20156;-67
2023/07/22 03:31:08;;;;;;;11.30;5.65;;;;;;;-144.48;100.00;62369.91;5009821;28;20623;-67
2023/07/22 03:33:34;;;;;;;12.65;6.38;;;;;;;-144.48;100.00;62369.91;5007491;28;20499;-67
2023/07/22 03:36:00;;;;;;;12.82;5.75;;;;;;;-144.48;100.00;62369.91;5008960;28;20492;-66
2023/07/22 03:38:25;;;;;;;12.60;5.88;;;;;;;-144.48;100.00;62369.91;5009489;28;20034;-67
2023/07/22 03:40:52;;;;;;;9.45;5.53;;;;;;;-144.48;100.00;62369.91;5010187;28;20492;-66
2023/07/22 03:43:18;;;;;;;8.05;5.03;;;;;;;-144.48;100.00;62369.91;5009222;28;20029;-66
2023/07/22 03:45:44;;;;;;;9.55;5.50;;;;;;;-144.48;100.00;62369.91;5009636;28;20028;-66
2023/07/22 03:48:09;;;;;;;13.10;6.35;;;;;;;-144.48;100.00;62369.91;5010302;28;20028;-67
2023/07/22 03:50:35;;;;;;;13.27;6.18;;;;;;;-144.48;100.00;62369.91;5009448;28;20076;-66
2023/07/22 03:53:00;;;;;;;12.75;7.38;;;;;;;-144.48;100.00;62369.91;5009356;28;20034;-65
2023/07/22 03:55:26;;;;;;;11.95;5.55;;;;;;;-144.48;100.00;62369.91;5009536;28;20025;-67
2023/07/22 03:57:51;;;;;;;12.10;6.38;;;;;;;-144.48;100.00;62369.91;5010188;28;20036;-64
2023/07/22 04:00:17;;;;;;;17.92;6.05;;;;;;;-144.48;100.00;62369.91;5009507;28;20028;-67
2023/07/22 04:02:42;;;;;;;12.00;6.10;;;;;;;-144.48;100.00;62369.91;5009856;28;20431;-64
2023/07/22 04:05:08;;;;;;;13.88;5.63;;;;;;;-144.48;100.00;62369.91;5008473;28;20129;-64
2023/07/22 04:07:33;;;;;;;13.15;5.60;;;;;;;-144.48;100.00;62369.91;5008136;28;20396;-66
2023/07/22 04:09:59;;;;;;;12.27;6.43;;;;;;;-144.48;100.00;62369.91;5009263;28;20021;-67
2023/07/22 04:12:24;;;;;;;11.18;5.78;;;;;;;-144.48;100.00;62369.91;5010482;28;20113;-67
2023/07/22 04:14:50;;;;;;;13.15;6.30;;;;;;;-144.48;100.00;62369.91;5008974;28;20369;-66
2023/07/22 04:17:15;;;;;;;9.10;6.03;;;;;;;-144.48;100.00;62369.91;5009730;28;20080;-65
2023/07/22 04:19:42;;;;;;;8.77;6.32;;;;;;;-144.48;100.00;62369.91;5009427;28;20197;-66
2023/07/22 04:22:07;;;;;;;12.88;7.32;;;;;;;-144.48;100.00;62369.91;5009437;28;20049;-68
2023/07/22 04:24:33;;;;;;;9.77;6.22;;;;;;;-144.48;100.00;62369.91;5008942;28;20057;-67
2023/07/22 04:26:59;;;;;;;16.77;7.13;;;;;;;-144.48;100.00;62369.91;5009628;28;20026;-65
2023/07/22 04:29:24;;;;;;;10.75;6.05;;;;;;;-144.48;100.00;62369.91;5009083;28;20068;-67
2023/07/22 04:31:56;;;;;;;18.65;6.55;;;;;;;-144.48;100.00;62369.91;5009389;28;20029;-66
2023/07/22 04:34:22;;;;;;;15.98;6.53;;;;;;;-144.48;100.00;62369.91;5007487;28;20034;-63
2023/07/22 04:36:47;;;;;;;15.73;7.47;;;;;;;-144.48;100.00;62369.91;5009218;28;20030;-66
2023/07/22 04:39:13;;;;;;;12.85;6.63;;;;;;;-144.48;100.00;62369.91;5009595;28;20030;-66
2023/07/22 04:41:38;;;;;;;13.20;7.15;;;;;;;-144.48;100.00;62369.91;5009640;28;20056;-66
2023/07/22 04:44:04;;;;;;;12.70;7.40;;;;;;;-144.48;100.00;62369.91;5008152;28;20041;-67
2023/07/22 04:46:29;;;;;;;13.85;6.63;;;;;;;-144.48;100.00;62369.91;5009457;28;20053;-66
2023/07/22 04:48:56;;;;;;;14.35;6.35;;;;;;;-144.48;100.00;62369.91;5010845;28;20438;-68
2023/07/22 04:51:22;;;;;;;13.02;6.53;;;;;;;-144.48;100.00;62369.91;5013351;28;20033;-64
2023/07/22 04:53:47;;;;;;;11.23;5.93;;;;;;;-144.48;100.00;62369.91;5012060;28;20101;-64
2023/07/22 04:56:12;;;;;;;13.40;6.38;;;;;;;-144.48;100.00;62369.91;5013173;28;20072;-67
2023/07/22 04:58:38;;;;;;;9.85;6.28;;;;;;;-144.48;100.00;62369.91;5012431;28;20068;-65
2023/07/22 05:01:04;;;;;;;8.55;5.53;;;;;;;-144.48;100.00;62369.91;5013860;28;20057;-66
2023/07/22 05:03:29;;;;;;;16.05;6.90;;;;;;;-144.48;100.00;62369.91;5012499;28;20055;-67
2023/07/22 05:05:54;;;;;;;8.90;6.18;;;;;;;-144.48;100.00;62369.91;5000243;28;20022;-67
2023/07/22 05:08:20;;;;;;;17.30;6.68;;;;;;;-144.48;100.00;62369.91;5011322;28;20046;-66
2023/07/22 05:10:46;;;;;;;12.50;5.40;;;;;;;-144.48;100.00;62369.91;5012569;28;20026;-67
2023/07/22 05:13:12;;;;;;;29.35;6.65;;;;;;;-144.48;100.00;62369.91;5012325;28;20034;-64
2023/07/22 05:15:37;;;;;;;11.02;5.55;;;;;;;-144.48;100.00;62369.91;5012433;28;20036;-66
2023/07/22 05:18:02;;;;;;;17.65;5.82;;;;;;;-144.48;100.00;62369.91;5006233;28;20111;-67
2023/07/22 05:20:28;;;;;;;16.00;6.38;;;;;;;-144.48;100.00;62369.91;5012484;28;20108;-66
2023/07/22 05:22:53;;;;;;;12.82;6.57;;;;;;;-144.48;100.00;62369.91;5012282;28;20053;-66
2023/07/22 05:25:18;;;;;;;11.88;5.70;;;;;;;-144.48;100.00;62369.91;5012127;28;20029;-67
2023/07/22 05:27:44;;;;;;;13.98;6.60;;;;;;;-144.48;100.00;62369.91;5012391;28;20065;-67
2023/07/22 05:30:10;;;;;;;10.25;6.03;;;;;;;-144.48;100.00;62369.91;5012204;28;20025;-66
2023/07/22 05:32:36;;;;;;;14.80;5.85;;;;;;;-144.48;100.00;62369.91;5011076;28;20057;-66
2023/07/22 05:35:04;;;;;;;15.65;6.03;;;;;;;-144.48;100.00;62369.91;5011304;28;20018;-68
2023/07/22 05:37:29;;;;;;;15.80;6.10;;;;;;;-144.48;100.00;62369.91;5011918;28;20125;-67
2023/07/22 05:39:54;;;;;;;12.93;5.88;;;;;;;-144.48;100.00;62369.91;5012154;28;20108;-67
2023/07/22 05:42:20;;;;;;;13.63;5.95;;;;;;;-144.48;100.00;62369.91;5012191;28;20101;-66
2023/07/22 05:44:48;;;;;;;13.98;5.90;;;;;;;-144.48;100.00;62369.91;5011450;28;20054;-66
2023/07/22 05:47:13;;;;;;;15.45;6.60;;;;;;;-144.48;100.00;62369.91;5012039;28;20483;-67
2023/07/22 05:49:39;;;;;;;11.60;6.38;;;;;;;-144.48;100.00;62369.91;5011836;28;20111;-66
2023/07/22 05:52:05;;;;;;;12.10;6.32;;;;;;;-144.48;100.00;62369.91;5011496;28;20026;-67
2023/07/22 05:54:30;;;;;;;15.23;6.80;;;;;;;-144.48;100.00;62369.91;5011066;28;20151;-64
2023/07/22 05:56:55;;;;;;;10.75;6.45;;;;;;;-144.48;100.00;62369.91;5011510;28;20028;-63
2023/07/22 05:59:21;;;;;;;13.27;7.07;;;;;;;-144.48;100.00;62369.91;5010736;28;20026;-66
2023/07/22 06:01:46;;;;;;;15.40;6.68;;;;;;;-144.48;100.00;62369.91;5011538;28;20030;-69
2023/07/22 06:04:14;;;;;;;13.13;6.35;;;;;;;-144.48;100.00;62369.91;5010758;28;20044;-66
2023/07/22 06:06:40;;;;;;;13.75;6.05;;;;;;;-144.48;100.00;62369.91;4992995;28;20025;-63
2023/07/22 06:09:05;;;;;;;30.95;6.10;;;;;;;-144.48;100.00;62369.91;5011670;28;20410;-68
2023/07/22 06:11:31;;;;;;;13.25;6.22;;;;;;;-144.48;100.00;62369.91;5011462;28;20021;-68
2023/07/22 06:13:56;;;;;;;12.73;5.78;;;;;;;-144.48;100.00;62369.91;5010999;28;20029;-65
2023/07/22 06:16:21;;;;;;;15.18;6.22;;;;;;;-144.48;100.00;62369.91;5011581;28;20495;-67
2023/07/22 06:18:47;;;;;;;15.93;6.40;;;;;;;-144.48;100.00;62369.91;5011360;28;20042;-68
2023/07/22 06:21:12;;;;;;;10.00;5.68;;;;;;;-144.48;100.00;62369.91;5011101;28;20476;-67
2023/07/22 06:23:38;;;;;;;15.63;5.72;;;;;;;-144.48;100.00;62369.91;5010129;28;20080;-67
2023/07/22 06:26:03;;;;;;;12.40;5.50;;;;;;;-144.48;100.00;62369.91;5010250;28;20034;-66
2023/07/22 06:28:28;;;;;;;11.02;5.75;;;;;;;-144.48;100.00;62369.91;5011521;28;20029;-66
2023/07/22 06:30:54;;;;;;;17.38;6.13;;;;;;;-144.48;100.00;62369.91;5011288;28;20030;-68
2023/07/22 06:33:19;;;;;;;14.00;6.60;;;;;;;-144.48;100.00;62369.91;5010422;28;20026;-65
2023/07/22 06:35:44;;;;;;;12.20;6.10;;;;;;;-144.48;100.00;62369.91;5010405;28;20479;-65
2023/07/22 06:38:10;;;;;;;11.90;6.47;;;;;;;-144.48;100.00;62369.91;5010981;28;20073;-67
2023/07/22 06:40:35;;;;;;;17.67;7.43;;;;;;;-144.48;100.00;62369.91;5011354;28;20017;-66
2023/07/22 06:43:00;;;;;;;13.10;5.95;;;;;;;-144.48;100.00;62369.91;5011468;28;20029;-67
2023/07/22 06:45:26;;;;;;;14.52;6.80;;;;;;;-144.48;100.00;62369.91;5009995;28;20076;-67
2023/07/22 06:47:51;;;;;;;15.73;5.68;;;;;;;-144.48;100.00;62369.91;5011119;28;20022;-67
2023/07/22 06:50:16;;;;;;;14.80;6.50;;;;;;;-144.48;100.00;62369.91;5010428;28;20436;-66
2023/07/22 06:52:42;;;;;;;15.82;6.22;;;;;;;-144.48;100.00;62369.91;5010790;28;20557;-67
2023/07/22 06:55:07;;;;;;;9.98;4.60;;;;;;;-144.48;100.00;62369.91;5010299;28;20022;-66
2023/07/22 06:57:33;;;;;;;12.23;5.22;;;;;;;-144.48;100.00;62369.91;5010492;28;20026;-66
2023/07/22 06:59:59;;;;;;;11.32;5.43;;;;;;;-144.48;100.00;62369.91;5010049;28;20384;-66
2023/07/22 07:02:26;;;;;;;9.52;4.88;;;;;;;-144.48;100.00;62369.91;5010600;28;20017;-67
2023/07/22 07:04:51;;;;;;;11.88;5.22;;;;;;;-144.48;100.00;62369.91;5009923;28;20063;-67
2023/07/22 07:07:18;;;;;;;12.70;5.22;;;;;;;-144.48;100.00;62369.91;5009431;28;20060;-64
2023/07/22 07:09:43;;;;;;;11.05;4.70;;;;;;;-144.48;100.00;62369.91;5008990;28;20097;-66
2023/07/22 07:12:09;;;;;;;11.77;4.85;;;;;;;-144.48;100.00;62369.91;5010152;28;20030;-66
2023/07/22 07:14:35;;;;;;;10.57;5.07;;;;;;;-144.48;100.00;62369.91;5009761;28;20514;-66
2023/07/22 07:17:01;;;;;;;9.13;5.00;;;;;;;-144.48;100.00;62369.91;5010562;28;20065;-68
2023/07/22 07:19:27;;;;;;;7.72;4.05;;;;;;;-144.48;100.00;62369.91;5010171;28;20026;-66
2023/07/22 07:21:52;;;;;;;9.73;5.25;;;;;;;-144.48;100.00;62369.91;5010185;28;20022;-64
2023/07/22 07:24:18;;;;;;;8.88;4.15;;;;;;;-144.48;100.00;62369.91;5009627;28;20028;-67
2023/07/22 07:26:44;;;;;;;10.23;4.45;;;;;;;-144.48;100.00;62369.91;5010516;28;20025;-64
2023/07/22 07:29:09;;;;;;;10.00;4.57;;;;;;;-144.48;100.00;62369.91;5009590;28;20026;-67
2023/07/22 07:31:35;;;;;;;7.72;3.50;;;;;;;-144.48;100.00;62369.91;5010552;28;20057;-67
2023/07/22 07:34:01;;;;;;;9.15;3.70;;;;;;;-144.48;100.00;62369.91;5009590;28;20018;-65
2023/07/22 07:36:26;;;;;;;9.40;3.50;;;;;;;-144.48;100.00;62369.91;5010539;28;20634;-67
2023/07/22 07:38:51;;;;;;;6.65;3.35;;;;;;;-144.48;100.00;62369.91;4992627;28;20022;-68
2023/07/22 07:41:17;;;;;;;9.65;3.10;;;;;;;-144.48;100.00;62369.91;5010234;28;20026;-66
2023/07/22 07:43:43;;;;;;;8.68;3.33;;;;;;;-144.48;100.00;62369.91;5008945;28;20049;-66
2023/07/22 07:46:20;;;;;;;6.72;2.88;;;;;;;-144.48;100.00;62369.91;5009893;28;20476;-67
2023/07/22 07:48:46;;;;;;;7.30;3.15;;;;;;;-144.48;100.00;62369.91;5009950;28;20079;-68
2023/07/22 07:51:15;;;;;;;6.50;2.95;;;;;;;-144.48;100.00;62369.91;5009422;28;20029;-67
2023/07/22 07:53:42;;;;;;;6.80;3.00;;;;;;;-144.48;100.00;62369.91;5008508;28;20431;-67
2023/07/22 07:56:08;;;;;;;10.48;2.83;;;;;;;-144.48;100.00;62369.91;5009932;28;20170;-67
2023/07/22 07:58:34;;;;;;;8.40;3.83;;;;;;;-144.48;100.00;62369.91;4995485;28;20029;-69
2023/07/22 08:00:59;;;;;;;9.15;3.17;;;;;;;-144.48;100.00;62369.91;5009623;28;20026;-67
2023/07/22 08:03:24;;;;;;;8.45;3.50;;;;;;;-144.48;100.00;62369.91;5009525;28;20368;-63
2023/07/22 08:05:50;;;;;;;5.72;3.05;;;;;;;-144.48;100.00;62369.91;5008921;28;20071;-68
2023/07/22 08:08:16;;;;;;;6.55;3.30;;;;;;;-144.48;100.00;62369.91;5008709;28;20025;-67
2023/07/22 08:10:43;;;;;;;6.25;2.90;;;;;;;-144.48;100.00;62369.91;5009355;28;20365;-66
2023/07/22 08:13:08;;;;;;;9.98;3.13;;;;;;;-144.48;100.00;62369.91;5008840;28;20028;-65
2023/07/22 08:15:34;;;;;;;7.20;3.13;;;;;;;-144.48;100.00;62369.91;5009037;28;20018;-67
2023/07/22 08:17:59;;;;;;;15.10;3.42;;;;;;;-144.48;100.00;62369.91;5009548;28;20065;-65
2023/07/22 08:20:25;;;;;;;9.70;4.07;;;;;;;-144.48;100.00;62369.91;5009684;28;20050;-67
2023/07/22 08:22:50;;;;;;;7.80;3.42;;;;;;;-144.48;100.00;62369.91;5010950;28;20032;-67
2023/07/22 08:25:15;;;;;;;11.25;4.07;;;;;;;-144.48;100.00;62369.91;5012862;28;20344;-67
2023/07/22 08:27:41;;;;;;;10.27;4.47;;;;;;;-144.48;100.00;62369.91;5013574;28;20087;-66
2023/07/22 08:30:07;;;;;;;8.55;4.22;;;;;;;-144.48;100.00;62369.91;5012803;28;20137;-67
2023/07/22 08:32:32;;;;;;;8.90;4.18;;;;;;;-144.48;100.00;62369.91;5012260;28;20451;-67
2023/07/22 08:34:58;;;;;;;8.13;4.00;;;;;;;-144.48;100.00;62369.91;5012458;28;20109;-64
2023/07/22 08:37:23;;;;;;;8.30;3.78;;;;;;;-144.48;100.00;62369.91;5012924;28;20026;-64
2023/07/22 08:39:48;;;;;;;7.10;3.35;;;;;;;-144.48;100.00;62369.91;5013804;28;20496;-66
2023/07/22 08:42:18;;;;;;;7.35;3.63;;;;;;;-144.48;100.00;62369.91;5013559;28;20018;-65
2023/07/22 08:44:44;;;;;;;7.40;3.85;;;;;;;-144.48;100.00;62369.91;5011876;28;20105;-65
2023/07/22 08:47:15;;;;;;;10.60;4.07;;;;;;;-144.48;100.00;62369.91;5013155;28;20109;-65
2023/07/22 08:49:45;;;;;;;8.07;3.22;;;;;;;-144.48;100.00;62369.91;5013052;28;20028;-68
2023/07/22 08:52:13;;;;;;;12.23;3.78;;;;;;;-144.48;100.00;62369.91;5012715;28;20022;-67
2023/07/22 08:54:40;;;;;;;9.98;3.92;;;;;;;-144.48;100.00;62369.91;5012320;28;20045;-64
2023/07/22 08:57:06;;;;;;;7.55;3.40;;;;;;;-144.48;100.00;62369.91;5013309;28;20034;-66
2023/07/22 08:59:32;;;;;;;10.13;3.25;;;;;;;-144.48;100.00;62369.91;5012510;28;20037;-67
2023/07/22 09:01:59;;;;;;;6.13;3.30;;;;;;;-144.48;100.00;62369.91;5012631;28;20046;-66
2023/07/22 09:04:24;;;;;;;7.18;2.80;;;;;;;-144.48;100.00;62369.91;5012190;28;20423;-67
2023/07/22 09:06:50;;;;;;;6.38;3.13;;;;;;;-144.48;100.00;62369.91;5011518;28;20551;-64
2023/07/22 09:09:16;;;;;;;8.70;3.35;;;;;;;-144.48;100.00;62369.91;5002551;28;20022;-64
2023/07/22 09:11:42;;;;;;;6.72;3.03;;;;;;;-144.48;100.00;62369.91;5012682;28;20030;-67
2023/07/22 09:14:10;;;;;;;6.18;2.83;;;;;;;-144.48;100.00;62369.91;5011658;28;20105;-67
2023/07/22 09:16:37;;;;;;;7.85;3.55;;;;;;;-144.48;100.00;62369.91;5012383;28;20029;-64
2023/07/22 09:19:04;;;;;;;13.07;2.90;;;;;;;-144.48;100.00;62369.91;5040249;22;20049;-67
2023/07/22 09:21:29;;;;;;;7.60;3.00;;;;;;;-144.48;100.00;62369.91;5012687;28;20439;-67
2023/07/22 09:23:55;;;;;;;6.30;3.22;;;;;;;-144.48;100.00;62369.91;5030697;28;20060;-66
2023/07/22 09:26:20;;;;;;;6.25;2.90;;;;;;;-144.48;100.00;62369.91;5031151;28;20419;-67
2023/07/22 09:28:51;;;;;;;7.07;3.35;;;;;;;-144.48;100.00;62369.91;5030936;28;20471;-64
2023/07/22 09:31:16;;;;;;;6.38;2.90;;;;;;;-144.48;100.00;62369.91;5030677;28;20146;-65
2023/07/22 09:33:42;;;;;;;5.93;2.97;;;;;;;-144.48;100.00;62369.91;5028330;28;20163;-65
2023/07/22 09:36:11;;;;;;;7.15;3.10;;;;;;;-144.48;100.00;62369.91;5030231;28;20061;-66
2023/07/22 09:38:36;;;;;;;;;;;;;;;-144.48;100.00;62369.91;5012907;28;20032;-67
2023/07/22 09:41:01;;;;;;;4.90;2.42;;;;;;;-144.48;100.00;62369.91;5030796;28;19913;-67
2023/07/22 09:43:26;;;;;;;11.00;2.95;;;;;;;-144.48;100.00;62369.91;5030024;28;20502;-65
2023/07/22 09:45:53;;;;;;;5.20;2.80;;;;;;;-144.48;100.00;62369.91;5012061;28;20072;-66
2023/07/22 09:48:22;;;;;;;7.60;2.70;;;;;;;-144.48;100.00;62369.91;5030844;28;20025;-63
2023/07/22 09:50:56;;;;;;;7.95;2.55;;;;;;;-144.48;100.00;62369.91;5030205;28;20518;-63
2023/07/22 09:53:22;;;;;;;6.35;2.88;;;;;;;-144.48;100.00;62369.91;5011973;28;20191;-68
2023/07/22 09:55:47;;;;;;;7.82;4.43;;;;;;;-144.48;100.00;62369.91;5030473;28;20526;-65
2023/07/22 09:58:14;;;;;;;7.22;3.05;;;;;;;-144.48;100.00;62369.91;5029987;28;20029;-67
2023/07/22 10:00:42;;;;;;;6.55;2.70;;;;;;;-144.48;100.00;62369.91;5029973;28;20032;-66
2023/07/22 10:03:10;;;;;;;7.13;2.97;;;;;;;-144.48;100.00;62369.91;5030791;28;20021;-64
2023/07/22 10:05:38;;;;;;;4.57;2.63;;;;;;;-144.48;100.00;62369.91;5016380;28;20484;-69
2023/07/22 10:08:06;;;;;;;6.55;2.85;;;;;;;-144.48;100.00;62369.91;5028619;28;20368;-68
2023/07/22 10:10:33;;;;;;;5.30;3.03;;;;;;;-144.48;100.00;62369.91;5030686;28;20044;-69
2023/07/22 10:12:59;;;;;;;5.88;2.30;;;;;;;-144.48;100.00;62369.91;5030509;28;20031;-64
2023/07/22 10:15:33;;;;;;;6.15;2.85;;;;;;;-144.48;100.00;62369.91;5029338;28;20112;-68
2023/07/22 10:18:00;;;;;;;6.90;2.65;;;;;;;-144.48;100.00;62369.91;5029774;28;20036;-67
2023/07/22 10:20:25;;;;;;;7.15;2.78;;;;;;;-144.48;100.00;62369.91;5030186;28;20052;-67
2023/07/22 10:22:51;;;;;;;6.18;2.67;;;;;;;-144.48;100.00;62369.91;5029398;28;20479;-66
2023/07/22 10:25:19;;;;;;;9.40;3.25;;;;;;;-144.48;100.00;62369.91;5029352;28;20336;-71
2023/07/22 10:27:47;;;;;;;7.38;2.88;;;;;;;-144.48;100.00;62369.91;5029656;28;20044;-66
2023/07/22 10:30:14;;;;;;;6.65;2.72;;;;;;;-144.48;100.00;62369.91;5029487;28;20068;-66
2023/07/22 10:32:42;;;;;;;5.13;2.40;;;;;;;-144.48;100.00;62369.91;5028706;28;20033;-63
2023/07/22 10:35:10;;;;;;;6.13;2.67;;;;;;;-144.48;100.00;62369.91;5010812;28;20471;-67
2023/07/22 10:37:36;;;;;;;4.90;2.37;;;;;;;-144.48;100.00;62369.91;5028953;28;20401;-66
2023/07/22 10:40:27;;;;;;;5.30;2.40;;;;;;;-144.48;100.00;62369.91;5029619;28;20270;-68
2023/07/22 10:43:06;;;;;;;7.32;2.42;;;;;;;-144.48;100.00;62369.91;5016725;28;20026;-69
2023/07/22 10:45:41;;;;;;;4.40;2.42;;;;;;;-144.48;100.00;62369.91;5028823;28;20029;-69
2023/07/22 10:48:08;;;;;;;8.88;2.97;;;;;;;-144.48;100.00;62369.91;5029274;28;20421;-63
2023/07/22 10:50:42;;;;;;;3.97;2.33;;;;;;;-144.48;100.00;62369.91;5028834;28;20117;-68
2023/07/22 10:53:12;;;;;;;6.13;2.40;;;;;;;-144.48;100.00;62369.91;5029369;28;20017;-63
2023/07/22 10:56:16;;;;;;;4.53;2.10;;;;;;;-144.48;100.00;62369.91;5029251;28;20408;-66
2023/07/22 10:58:44;;;;;;;4.32;2.10;;;;;;;-144.48;100.00;62369.91;5028392;28;20106;-68
2023/07/22 11:01:28;;;;;;;4.38;2.05;;;;;;;-144.48;100.00;62369.91;5029224;28;20021;-65